sensor_id;sensor_type;location;lat;lon;timestamp;P1;durP1;ratioP1;P2;durP2;ratioP2
53867;SDS011;41577;47.470;19.080;2023-05-10T00:00:11;4.43;;;2.00;;
53867;SDS011;41577;47.470;19.080;2023-05-10T00:00:24;3.00;;;1.98;;
53867;SDS011;41577;47.470;19.080;2023-05-10T00:00:36;2.28;;;2.08;;
53867;SDS011;41577;47.470;19.080;2023-05-10T00:00:48;2.67;;;2.13;;
53867;SDS011;41577;47.470;19.080;2023-05-10T00:01:00;3.08;;;2.17;;
53867;SDS011;41577;47.470;19.080;2023-05-10T00:01:11;2.63;;;2.03;;
53867;SDS011;41577;47.470;19.080;2023-05-10T00:01:23;2.30;;;1.90;;
53867;SDS011;41577;47.470;19.080;2023-05-10T00:01:35;3.33;;;1.92;;
53867;SDS011;41577;47.470;19.080;2023-05-10T00:01:46;4.38;;;1.95;;
53867;SDS011;41577;47.470;19.080;2023-05-10T00:01:58;6.47;;;2.10;;
53867;SDS011;41577;47.470;19.080;2023-05-10T00:02:10;6.10;;;2.10;;
53867;SDS011;41577;47.470;19.080;2023-05-10T00:02:22;6.65;;;2.15;;
53867;SDS011;41577;47.470;19.080;2023-05-10T00:02:34;5.47;;;2.10;;
53867;SDS011;41577;47.470;19.080;2023-05-10T00:02:46;3.47;;;1.90;;
53867;SDS011;41577;47.470;19.080;2023-05-10T00:02:58;3.85;;;2.08;;
53867;SDS011;41577;47.470;19.080;2023-05-10T00:03:09;3.30;;;2.00;;
53867;SDS011;41577;47.470;19.080;2023-05-10T00:03:21;4.10;;;2.10;;
53867;SDS011;41577;47.470;19.080;2023-05-10T00:03:33;3.88;;;2.00;;
53867;SDS011;41577;47.470;19.080;2023-05-10T00:03:45;3.50;;;1.95;;
53867;SDS011;41577;47.470;19.080;2023-05-10T00:03:57;2.90;;;1.70;;
53867;SDS011;41577;47.470;19.080;2023-05-10T00:04:08;4.10;;;1.70;;
53867;SDS011;41577;47.470;19.080;2023-05-10T00:04:20;4.00;;;1.70;;
53867;SDS011;41577;47.470;19.080;2023-05-10T00:04:32;2.10;;;1.80;;
53867;SDS011;41577;47.470;19.080;2023-05-10T00:04:44;2.67;;;1.83;;
53867;SDS011;41577;47.470;19.080;2023-05-10T00:04:55;3.50;;;2.03;;
53867;SDS011;41577;47.470;19.080;2023-05-10T00:05:07;3.25;;;2.20;;
53867;SDS011;41577;47.470;19.080;2023-05-10T00:05:19;2.40;;;2.00;;
53867;SDS011;41577;47.470;19.080;2023-05-10T00:05:31;2.13;;;1.92;;
53867;SDS011;41577;47.470;19.080;2023-05-10T00:05:43;2.60;;;1.90;;
53867;SDS011;41577;47.470;19.080;2023-05-10T00:05:55;4.28;;;2.00;;
53867;SDS011;41577;47.470;19.080;2023-05-10T00:06:06;6.10;;;2.03;;
53867;SDS011;41577;47.470;19.080;2023-05-10T00:06:18;5.75;;;1.90;;
53867;SDS011;41577;47.470;19.080;2023-05-10T00:06:30;4.68;;;1.92;;
53867;SDS011;41577;47.470;19.080;2023-05-10T00:06:42;2.00;;;1.90;;
53867;SDS011;41577;47.470;19.080;2023-05-10T00:06:53;2.72;;;2.17;;
53867;SDS011;41577;47.470;19.080;2023-05-10T00:07:05;8.70;;;2.05;;
53867;SDS011;41577;47.470;19.080;2023-05-10T00:07:18;8.93;;;1.85;;
53867;SDS011;41577;47.470;19.080;2023-05-10T00:07:30;7.20;;;1.80;;
53867;SDS011;41577;47.470;19.080;2023-05-10T00:07:41;3.92;;;1.90;;
53867;SDS011;41577;47.470;19.080;2023-05-10T00:07:53;2.67;;;1.88;;
53867;SDS011;41577;47.470;19.080;2023-05-10T00:08:05;2.20;;;2.00;;
53867;SDS011;41577;47.470;19.080;2023-05-10T00:08:16;2.20;;;2.00;;
53867;SDS011;41577;47.470;19.080;2023-05-10T00:08:28;2.20;;;1.80;;
53867;SDS011;41577;47.470;19.080;2023-05-10T00:08:40;2.40;;;1.60;;
53867;SDS011;41577;47.470;19.080;2023-05-10T00:08:52;3.33;;;1.77;;
53867;SDS011;41577;47.470;19.080;2023-05-10T00:09:04;3.60;;;2.05;;
53867;SDS011;41577;47.470;19.080;2023-05-10T00:09:15;3.95;;;2.20;;
53867;SDS011;41577;47.470;19.080;2023-05-10T00:09:27;4.50;;;2.17;;
53867;SDS011;41577;47.470;19.080;2023-05-10T00:09:39;6.40;;;1.80;;
53867;SDS011;41577;47.470;19.080;2023-05-10T00:09:50;9.23;;;1.70;;
53867;SDS011;41577;47.470;19.080;2023-05-10T00:10:02;7.97;;;1.63;;
53867;SDS011;41577;47.470;19.080;2023-05-10T00:10:14;5.07;;;1.85;;
53867;SDS011;41577;47.470;19.080;2023-05-10T00:10:26;6.72;;;2.00;;
53867;SDS011;41577;47.470;19.080;2023-05-10T00:10:38;7.95;;;2.08;;
53867;SDS011;41577;47.470;19.080;2023-05-10T00:10:50;6.93;;;1.85;;
53867;SDS011;41577;47.470;19.080;2023-05-10T00:11:01;3.53;;;1.80;;
53867;SDS011;41577;47.470;19.080;2023-05-10T00:11:13;3.60;;;1.92;;
53867;SDS011;41577;47.470;19.080;2023-05-10T00:11:25;3.88;;;2.20;;
53867;SDS011;41577;47.470;19.080;2023-05-10T00:11:37;3.83;;;2.22;;
53867;SDS011;41577;47.470;19.080;2023-05-10T00:11:48;4.70;;;2.08;;
53867;SDS011;41577;47.470;19.080;2023-05-10T00:12:00;5.03;;;2.00;;
53867;SDS011;41577;47.470;19.080;2023-05-10T00:12:12;4.88;;;2.05;;
53867;SDS011;41577;47.470;19.080;2023-05-10T00:12:23;4.13;;;2.00;;
53867;SDS011;41577;47.470;19.080;2023-05-10T00:12:35;4.82;;;2.10;;
53867;SDS011;41577;47.470;19.080;2023-05-10T00:12:47;7.63;;;2.35;;
53867;SDS011;41577;47.470;19.080;2023-05-10T00:12:58;7.63;;;2.38;;
53867;SDS011;41577;47.470;19.080;2023-05-10T00:13:10;4.90;;;2.20;;
53867;SDS011;41577;47.470;19.080;2023-05-10T00:13:22;3.55;;;2.10;;
53867;SDS011;41577;47.470;19.080;2023-05-10T00:13:34;2.55;;;2.10;;
53867;SDS011;41577;47.470;19.080;2023-05-10T00:13:45;3.10;;;2.15;;
53867;SDS011;41577;47.470;19.080;2023-05-10T00:13:57;3.33;;;2.22;;
53867;SDS011;41577;47.470;19.080;2023-05-10T00:14:09;3.03;;;2.35;;
53867;SDS011;41577;47.470;19.080;2023-05-10T00:14:21;3.22;;;2.20;;
53867;SDS011;41577;47.470;19.080;2023-05-10T00:14:32;3.58;;;2.28;;
53867;SDS011;41577;47.470;19.080;2023-05-10T00:14:44;4.90;;;2.30;;
53867;SDS011;41577;47.470;19.080;2023-05-10T00:14:56;9.98;;;2.30;;
53867;SDS011;41577;47.470;19.080;2023-05-10T00:15:08;13.65;;;2.53;;
53867;SDS011;41577;47.470;19.080;2023-05-10T00:15:20;9.02;;;2.40;;
53867;SDS011;41577;47.470;19.080;2023-05-10T00:15:32;4.68;;;2.28;;
53867;SDS011;41577;47.470;19.080;2023-05-10T00:15:44;4.65;;;2.22;;
53867;SDS011;41577;47.470;19.080;2023-05-10T00:15:55;6.85;;;2.08;;
53867;SDS011;41577;47.470;19.080;2023-05-10T00:16:07;6.00;;;1.98;;
53867;SDS011;41577;47.470;19.080;2023-05-10T00:16:19;5.55;;;2.15;;
53867;SDS011;41577;47.470;19.080;2023-05-10T00:16:30;5.55;;;2.58;;
53867;SDS011;41577;47.470;19.080;2023-05-10T00:16:42;4.25;;;2.65;;
53867;SDS011;41577;47.470;19.080;2023-05-10T00:16:54;5.45;;;2.15;;
53867;SDS011;41577;47.470;19.080;2023-05-10T00:17:06;6.85;;;2.20;;
53867;SDS011;41577;47.470;19.080;2023-05-10T00:17:17;9.18;;;2.40;;
53867;SDS011;41577;47.470;19.080;2023-05-10T00:17:29;6.60;;;2.40;;
53867;SDS011;41577;47.470;19.080;2023-05-10T00:17:41;7.07;;;2.42;;
53867;SDS011;41577;47.470;19.080;2023-05-10T00:17:52;4.60;;;2.42;;
53867;SDS011;41577;47.470;19.080;2023-05-10T00:18:04;3.42;;;2.25;;
53867;SDS011;41577;47.470;19.080;2023-05-10T00:18:16;3.60;;;2.28;;
53867;SDS011;41577;47.470;19.080;2023-05-10T00:18:28;4.18;;;2.40;;
53867;SDS011;41577;47.470;19.080;2023-05-10T00:18:39;9.63;;;2.45;;
53867;SDS011;41577;47.470;19.080;2023-05-10T00:18:51;7.55;;;2.05;;
53867;SDS011;41577;47.470;19.080;2023-05-10T00:19:03;4.72;;;1.98;;
53867;SDS011;41577;47.470;19.080;2023-05-10T00:19:15;2.80;;;1.95;;
53867;SDS011;41577;47.470;19.080;2023-05-10T00:19:27;3.38;;;2.10;;
53867;SDS011;41577;47.470;19.080;2023-05-10T00:19:38;4.32;;;2.20;;
53867;SDS011;41577;47.470;19.080;2023-05-10T00:19:50;3.85;;;2.10;;
53867;SDS011;41577;47.470;19.080;2023-05-10T00:20:02;2.90;;;2.03;;
53867;SDS011;41577;47.470;19.080;2023-05-10T00:20:14;7.10;;;2.00;;
53867;SDS011;41577;47.470;19.080;2023-05-10T00:20:26;7.55;;;2.03;;
53867;SDS011;41577;47.470;19.080;2023-05-10T00:20:38;4.47;;;2.22;;
53867;SDS011;41577;47.470;19.080;2023-05-10T00:20:50;8.90;;;2.20;;
53867;SDS011;41577;47.470;19.080;2023-05-10T00:21:02;8.85;;;2.22;;
53867;SDS011;41577;47.470;19.080;2023-05-10T00:21:13;6.38;;;2.28;;
53867;SDS011;41577;47.470;19.080;2023-05-10T00:21:25;8.52;;;2.55;;
53867;SDS011;41577;47.470;19.080;2023-05-10T00:21:37;7.95;;;2.40;;
53867;SDS011;41577;47.470;19.080;2023-05-10T00:21:49;3.30;;;2.25;;
53867;SDS011;41577;47.470;19.080;2023-05-10T00:22:00;3.20;;;2.05;;
53867;SDS011;41577;47.470;19.080;2023-05-10T00:22:12;4.72;;;2.33;;
53867;SDS011;41577;47.470;19.080;2023-05-10T00:22:25;4.90;;;2.58;;
53867;SDS011;41577;47.470;19.080;2023-05-10T00:22:37;4.82;;;2.70;;
53867;SDS011;41577;47.470;19.080;2023-05-10T00:22:48;3.83;;;2.53;;
53867;SDS011;41577;47.470;19.080;2023-05-10T00:23:00;4.28;;;2.30;;
53867;SDS011;41577;47.470;19.080;2023-05-10T00:23:12;4.82;;;2.33;;
53867;SDS011;41577;47.470;19.080;2023-05-10T00:23:23;4.63;;;2.45;;
53867;SDS011;41577;47.470;19.080;2023-05-10T00:23:35;4.20;;;2.50;;
53867;SDS011;41577;47.470;19.080;2023-05-10T00:23:47;6.13;;;2.60;;
53867;SDS011;41577;47.470;19.080;2023-05-10T00:23:59;7.25;;;2.45;;
53867;SDS011;41577;47.470;19.080;2023-05-10T00:24:10;8.10;;;2.28;;
53867;SDS011;41577;47.470;19.080;2023-05-10T00:24:22;7.50;;;2.10;;
53867;SDS011;41577;47.470;19.080;2023-05-10T00:24:34;5.20;;;2.20;;
53867;SDS011;41577;47.470;19.080;2023-05-10T00:24:45;4.93;;;2.50;;
53867;SDS011;41577;47.470;19.080;2023-05-10T00:24:57;4.45;;;2.45;;
53867;SDS011;41577;47.470;19.080;2023-05-10T00:25:09;4.25;;;2.40;;
53867;SDS011;41577;47.470;19.080;2023-05-10T00:25:21;5.97;;;2.30;;
53867;SDS011;41577;47.470;19.080;2023-05-10T00:25:33;5.97;;;2.40;;
53867;SDS011;41577;47.470;19.080;2023-05-10T00:25:44;5.63;;;2.47;;
53867;SDS011;41577;47.470;19.080;2023-05-10T00:25:56;4.00;;;2.53;;
53867;SDS011;41577;47.470;19.080;2023-05-10T00:26:08;4.60;;;2.85;;
53867;SDS011;41577;47.470;19.080;2023-05-10T00:26:21;5.70;;;3.20;;
53867;SDS011;41577;47.470;19.080;2023-05-10T00:26:36;6.80;;;3.45;;
53867;SDS011;41577;47.470;19.080;2023-05-10T00:26:48;5.90;;;3.78;;
53867;SDS011;41577;47.470;19.080;2023-05-10T00:27:00;5.47;;;3.47;;
53867;SDS011;41577;47.470;19.080;2023-05-10T00:27:12;4.22;;;2.70;;
53867;SDS011;41577;47.470;19.080;2023-05-10T00:27:23;6.30;;;3.17;;
53867;SDS011;41577;47.470;19.080;2023-05-10T00:27:35;8.95;;;3.15;;
53867;SDS011;41577;47.470;19.080;2023-05-10T00:27:47;8.38;;;3.28;;
53867;SDS011;41577;47.470;19.080;2023-05-10T00:27:59;6.85;;;3.45;;
53867;SDS011;41577;47.470;19.080;2023-05-10T00:28:10;4.38;;;3.83;;
53867;SDS011;41577;47.470;19.080;2023-05-10T00:28:22;6.18;;;4.10;;
53867;SDS011;41577;47.470;19.080;2023-05-10T00:28:34;7.85;;;4.03;;
53867;SDS011;41577;47.470;19.080;2023-05-10T00:28:46;12.65;;;3.88;;
53867;SDS011;41577;47.470;19.080;2023-05-10T00:28:58;10.48;;;3.28;;
53867;SDS011;41577;47.470;19.080;2023-05-10T00:29:10;6.65;;;3.03;;
53867;SDS011;41577;47.470;19.080;2023-05-10T00:29:21;4.03;;;3.08;;
53867;SDS011;41577;47.470;19.080;2023-05-10T00:29:33;4.18;;;3.15;;
53867;SDS011;41577;47.470;19.080;2023-05-10T00:29:45;4.10;;;3.15;;
53867;SDS011;41577;47.470;19.080;2023-05-10T00:29:57;4.18;;;3.10;;
53867;SDS011;41577;47.470;19.080;2023-05-10T00:30:08;4.20;;;2.97;;
53867;SDS011;41577;47.470;19.080;2023-05-10T00:30:20;5.88;;;3.10;;
53867;SDS011;41577;47.470;19.080;2023-05-10T00:30:32;5.70;;;2.90;;
53867;SDS011;41577;47.470;19.080;2023-05-10T00:30:45;5.00;;;2.88;;
53867;SDS011;41577;47.470;19.080;2023-05-10T00:30:57;7.55;;;2.72;;
53867;SDS011;41577;47.470;19.080;2023-05-10T00:31:09;8.77;;;2.80;;
53867;SDS011;41577;47.470;19.080;2023-05-10T00:31:20;5.90;;;2.85;;
53867;SDS011;41577;47.470;19.080;2023-05-10T00:31:32;4.20;;;2.78;;
53867;SDS011;41577;47.470;19.080;2023-05-10T00:31:44;3.50;;;2.70;;
53867;SDS011;41577;47.470;19.080;2023-05-10T00:31:56;3.55;;;2.70;;
53867;SDS011;41577;47.470;19.080;2023-05-10T00:32:07;6.25;;;3.00;;
53867;SDS011;41577;47.470;19.080;2023-05-10T00:32:19;7.05;;;3.33;;
53867;SDS011;41577;47.470;19.080;2023-05-10T00:32:31;7.07;;;3.47;;
53867;SDS011;41577;47.470;19.080;2023-05-10T00:32:43;4.07;;;3.25;;
53867;SDS011;41577;47.470;19.080;2023-05-10T00:32:55;5.63;;;3.35;;
53867;SDS011;41577;47.470;19.080;2023-05-10T00:33:06;6.30;;;3.17;;
53867;SDS011;41577;47.470;19.080;2023-05-10T00:33:18;4.72;;;2.92;;
53867;SDS011;41577;47.470;19.080;2023-05-10T00:33:30;4.55;;;2.90;;
53867;SDS011;41577;47.470;19.080;2023-05-10T00:33:42;4.10;;;2.92;;
53867;SDS011;41577;47.470;19.080;2023-05-10T00:33:54;4.15;;;3.00;;
53867;SDS011;41577;47.470;19.080;2023-05-10T00:34:05;10.60;;;3.03;;
53867;SDS011;41577;47.470;19.080;2023-05-10T00:34:17;14.75;;;2.90;;
53867;SDS011;41577;47.470;19.080;2023-05-10T00:34:29;14.43;;;2.70;;
53867;SDS011;41577;47.470;19.080;2023-05-10T00:34:40;6.32;;;2.58;;
53867;SDS011;41577;47.470;19.080;2023-05-10T00:34:52;4.18;;;2.53;;
53867;SDS011;41577;47.470;19.080;2023-05-10T00:35:04;4.28;;;2.72;;
53867;SDS011;41577;47.470;19.080;2023-05-10T00:35:16;4.60;;;2.80;;
53867;SDS011;41577;47.470;19.080;2023-05-10T00:35:28;7.53;;;2.97;;
53867;SDS011;41577;47.470;19.080;2023-05-10T00:35:40;8.43;;;3.55;;
53867;SDS011;41577;47.470;19.080;2023-05-10T00:35:53;7.25;;;3.70;;
53867;SDS011;41577;47.470;19.080;2023-05-10T00:36:05;3.22;;;2.95;;
53867;SDS011;41577;47.470;19.080;2023-05-10T00:36:17;3.20;;;2.58;;
53867;SDS011;41577;47.470;19.080;2023-05-10T00:36:29;6.35;;;2.80;;
53867;SDS011;41577;47.470;19.080;2023-05-10T00:36:40;7.63;;;3.00;;
53867;SDS011;41577;47.470;19.080;2023-05-10T00:36:52;4.78;;;2.88;;
53867;SDS011;41577;47.470;19.080;2023-05-10T00:37:04;3.92;;;2.65;;
53867;SDS011;41577;47.470;19.080;2023-05-10T00:37:17;4.72;;;2.75;;
53867;SDS011;41577;47.470;19.080;2023-05-10T00:37:30;5.65;;;3.00;;
53867;SDS011;41577;47.470;19.080;2023-05-10T00:37:41;6.15;;;3.15;;
53867;SDS011;41577;47.470;19.080;2023-05-10T00:37:53;5.57;;;2.95;;
53867;SDS011;41577;47.470;19.080;2023-05-10T00:38:05;5.47;;;3.08;;
53867;SDS011;41577;47.470;19.080;2023-05-10T00:38:16;8.10;;;3.20;;
53867;SDS011;41577;47.470;19.080;2023-05-10T00:38:28;10.05;;;3.35;;
53867;SDS011;41577;47.470;19.080;2023-05-10T00:38:40;7.90;;;3.03;;
53867;SDS011;41577;47.470;19.080;2023-05-10T00:38:52;6.53;;;2.78;;
53867;SDS011;41577;47.470;19.080;2023-05-10T00:39:03;4.95;;;2.92;;
53867;SDS011;41577;47.470;19.080;2023-05-10T00:39:15;4.70;;;2.88;;
53867;SDS011;41577;47.470;19.080;2023-05-10T00:39:28;4.43;;;2.90;;
53867;SDS011;41577;47.470;19.080;2023-05-10T00:39:40;4.75;;;2.75;;
53867;SDS011;41577;47.470;19.080;2023-05-10T00:39:51;5.25;;;2.72;;
53867;SDS011;41577;47.470;19.080;2023-05-10T00:40:03;4.30;;;2.60;;
53867;SDS011;41577;47.470;19.080;2023-05-10T00:40:16;3.13;;;2.60;;
53867;SDS011;41577;47.470;19.080;2023-05-10T00:40:32;4.07;;;3.10;;
53867;SDS011;41577;47.470;19.080;2023-05-10T00:40:49;4.72;;;2.92;;
53867;SDS011;41577;47.470;19.080;2023-05-10T00:41:08;4.13;;;2.78;;
53867;SDS011;41577;47.470;19.080;2023-05-10T00:41:22;4.53;;;3.00;;
53867;SDS011;41577;47.470;19.080;2023-05-10T00:41:34;6.10;;;3.15;;
53867;SDS011;41577;47.470;19.080;2023-05-10T00:41:47;10.70;;;3.28;;
53867;SDS011;41577;47.470;19.080;2023-05-10T00:42:00;11.10;;;3.47;;
53867;SDS011;41577;47.470;19.080;2023-05-10T00:42:12;6.45;;;3.60;;
53867;SDS011;41577;47.470;19.080;2023-05-10T00:42:25;5.78;;;3.47;;
53867;SDS011;41577;47.470;19.080;2023-05-10T00:42:38;5.88;;;3.40;;
53867;SDS011;41577;47.470;19.080;2023-05-10T00:42:51;4.35;;;3.47;;
53867;SDS011;41577;47.470;19.080;2023-05-10T00:43:02;4.90;;;3.65;;
53867;SDS011;41577;47.470;19.080;2023-05-10T00:43:14;6.72;;;3.88;;
53867;SDS011;41577;47.470;19.080;2023-05-10T00:43:26;7.07;;;4.05;;
53867;SDS011;41577;47.470;19.080;2023-05-10T00:43:38;5.43;;;3.70;;
53867;SDS011;41577;47.470;19.080;2023-05-10T00:43:49;7.38;;;3.67;;
53867;SDS011;41577;47.470;19.080;2023-05-10T00:44:01;7.10;;;3.75;;
53867;SDS011;41577;47.470;19.080;2023-05-10T00:44:13;4.63;;;3.75;;
53867;SDS011;41577;47.470;19.080;2023-05-10T00:44:25;7.00;;;3.72;;
53867;SDS011;41577;47.470;19.080;2023-05-10T00:44:36;6.60;;;3.45;;
53867;SDS011;41577;47.470;19.080;2023-05-10T00:44:49;5.45;;;3.55;;
53867;SDS011;41577;47.470;19.080;2023-05-10T00:45:01;4.18;;;3.63;;
53867;SDS011;41577;47.470;19.080;2023-05-10T00:45:13;5.05;;;3.72;;
53867;SDS011;41577;47.470;19.080;2023-05-10T00:45:25;7.70;;;4.13;;
53867;SDS011;41577;47.470;19.080;2023-05-10T00:45:37;7.35;;;4.35;;
53867;SDS011;41577;47.470;19.080;2023-05-10T00:45:51;7.63;;;4.43;;
53867;SDS011;41577;47.470;19.080;2023-05-10T00:46:03;9.07;;;4.10;;
53867;SDS011;41577;47.470;19.080;2023-05-10T00:46:16;6.57;;;4.03;;
53867;SDS011;41577;47.470;19.080;2023-05-10T00:46:28;4.25;;;3.85;;
53867;SDS011;41577;47.470;19.080;2023-05-10T00:46:40;4.60;;;3.65;;
53867;SDS011;41577;47.470;19.080;2023-05-10T00:46:53;5.38;;;3.85;;
53867;SDS011;41577;47.470;19.080;2023-05-10T00:47:05;9.23;;;4.03;;
53867;SDS011;41577;47.470;19.080;2023-05-10T00:47:17;10.25;;;4.25;;
53867;SDS011;41577;47.470;19.080;2023-05-10T00:47:29;9.25;;;4.43;;
53867;SDS011;41577;47.470;19.080;2023-05-10T00:47:40;7.38;;;4.10;;
53867;SDS011;41577;47.470;19.080;2023-05-10T00:47:52;6.43;;;3.88;;
53867;SDS011;41577;47.470;19.080;2023-05-10T00:48:04;6.78;;;4.15;;
53867;SDS011;41577;47.470;19.080;2023-05-10T00:48:16;7.13;;;4.68;;
53867;SDS011;41577;47.470;19.080;2023-05-10T00:48:28;8.63;;;5.00;;
53867;SDS011;41577;47.470;19.080;2023-05-10T00:48:40;8.10;;;4.75;;
53867;SDS011;41577;47.470;19.080;2023-05-10T00:48:53;7.85;;;4.85;;
53867;SDS011;41577;47.470;19.080;2023-05-10T00:49:05;7.25;;;4.95;;
53867;SDS011;41577;47.470;19.080;2023-05-10T00:49:17;7.70;;;4.82;;
53867;SDS011;41577;47.470;19.080;2023-05-10T00:49:29;6.03;;;4.68;;
53867;SDS011;41577;47.470;19.080;2023-05-10T00:49:41;6.10;;;4.88;;
53867;SDS011;41577;47.470;19.080;2023-05-10T00:49:52;9.68;;;5.10;;
53867;SDS011;41577;47.470;19.080;2023-05-10T00:50:05;12.98;;;5.05;;
53867;SDS011;41577;47.470;19.080;2023-05-10T00:50:17;11.00;;;5.18;;
53867;SDS011;41577;47.470;19.080;2023-05-10T00:50:30;7.82;;;4.93;;
53867;SDS011;41577;47.470;19.080;2023-05-10T00:50:42;5.57;;;4.78;;
53867;SDS011;41577;47.470;19.080;2023-05-10T00:50:54;16.80;;;5.15;;
53867;SDS011;41577;47.470;19.080;2023-05-10T00:51:06;19.67;;;5.68;;
53867;SDS011;41577;47.470;19.080;2023-05-10T00:51:17;18.33;;;5.57;;
53867;SDS011;41577;47.470;19.080;2023-05-10T00:51:29;7.03;;;5.07;;
53867;SDS011;41577;47.470;19.080;2023-05-10T00:51:41;8.13;;;4.75;;
53867;SDS011;41577;47.470;19.080;2023-05-10T00:51:53;7.80;;;4.22;;
53867;SDS011;41577;47.470;19.080;2023-05-10T00:52:05;7.07;;;4.78;;
53867;SDS011;41577;47.470;19.080;2023-05-10T00:52:17;7.32;;;5.13;;
53867;SDS011;41577;47.470;19.080;2023-05-10T00:52:30;7.53;;;5.38;;
53867;SDS011;41577;47.470;19.080;2023-05-10T00:52:42;9.55;;;5.00;;
53867;SDS011;41577;47.470;19.080;2023-05-10T00:52:54;8.70;;;4.78;;
53867;SDS011;41577;47.470;19.080;2023-05-10T00:53:06;7.05;;;4.45;;
53867;SDS011;41577;47.470;19.080;2023-05-10T00:53:19;5.85;;;4.55;;
53867;SDS011;41577;47.470;19.080;2023-05-10T00:53:31;8.25;;;4.53;;
53867;SDS011;41577;47.470;19.080;2023-05-10T00:53:43;9.18;;;4.43;;
53867;SDS011;41577;47.470;19.080;2023-05-10T00:53:56;8.38;;;4.55;;
53867;SDS011;41577;47.470;19.080;2023-05-10T00:54:08;6.63;;;4.43;;
53867;SDS011;41577;47.470;19.080;2023-05-10T00:54:21;7.03;;;4.50;;
53867;SDS011;41577;47.470;19.080;2023-05-10T00:54:32;8.02;;;4.70;;
53867;SDS011;41577;47.470;19.080;2023-05-10T00:54:44;7.10;;;4.85;;
53867;SDS011;41577;47.470;19.080;2023-05-10T00:54:57;7.07;;;4.53;;
53867;SDS011;41577;47.470;19.080;2023-05-10T00:55:09;7.05;;;4.28;;
53867;SDS011;41577;47.470;19.080;2023-05-10T00:55:22;8.02;;;4.35;;
53867;SDS011;41577;47.470;19.080;2023-05-10T00:55:34;7.70;;;4.65;;
53867;SDS011;41577;47.470;19.080;2023-05-10T00:55:46;8.07;;;4.57;;
53867;SDS011;41577;47.470;19.080;2023-05-10T00:55:58;5.30;;;4.15;;
53867;SDS011;41577;47.470;19.080;2023-05-10T00:56:10;4.88;;;4.22;;
53867;SDS011;41577;47.470;19.080;2023-05-10T00:56:22;5.50;;;4.35;;
53867;SDS011;41577;47.470;19.080;2023-05-10T00:56:34;5.57;;;4.43;;
53867;SDS011;41577;47.470;19.080;2023-05-10T00:56:46;5.13;;;4.47;;
53867;SDS011;41577;47.470;19.080;2023-05-10T00:56:58;4.82;;;4.35;;
53867;SDS011;41577;47.470;19.080;2023-05-10T00:57:10;4.63;;;4.10;;
53867;SDS011;41577;47.470;19.080;2023-05-10T00:57:22;4.97;;;4.15;;
53867;SDS011;41577;47.470;19.080;2023-05-10T00:57:34;5.43;;;4.10;;
53867;SDS011;41577;47.470;19.080;2023-05-10T00:57:46;6.18;;;3.85;;
53867;SDS011;41577;47.470;19.080;2023-05-10T00:57:58;6.85;;;4.07;;
53867;SDS011;41577;47.470;19.080;2023-05-10T00:58:10;5.20;;;4.03;;
53867;SDS011;41577;47.470;19.080;2023-05-10T00:58:21;4.95;;;3.83;;
53867;SDS011;41577;47.470;19.080;2023-05-10T00:58:33;6.22;;;3.90;;
53867;SDS011;41577;47.470;19.080;2023-05-10T00:58:45;7.20;;;4.00;;
53867;SDS011;41577;47.470;19.080;2023-05-10T00:58:56;6.40;;;3.78;;
53867;SDS011;41577;47.470;19.080;2023-05-10T00:59:08;5.47;;;3.63;;
53867;SDS011;41577;47.470;19.080;2023-05-10T00:59:20;6.13;;;3.60;;
53867;SDS011;41577;47.470;19.080;2023-05-10T00:59:32;5.47;;;3.33;;
53867;SDS011;41577;47.470;19.080;2023-05-10T00:59:44;5.55;;;3.70;;
53867;SDS011;41577;47.470;19.080;2023-05-10T00:59:57;5.47;;;3.60;;
53867;SDS011;41577;47.470;19.080;2023-05-10T01:00:09;7.22;;;3.35;;
53867;SDS011;41577;47.470;19.080;2023-05-10T01:00:22;8.65;;;3.40;;
53867;SDS011;41577;47.470;19.080;2023-05-10T01:00:33;7.32;;;3.53;;
53867;SDS011;41577;47.470;19.080;2023-05-10T01:00:46;7.25;;;3.38;;
53867;SDS011;41577;47.470;19.080;2023-05-10T01:00:59;7.03;;;3.13;;
53867;SDS011;41577;47.470;19.080;2023-05-10T01:01:12;6.45;;;3.10;;
53867;SDS011;41577;47.470;19.080;2023-05-10T01:01:24;5.88;;;3.00;;
53867;SDS011;41577;47.470;19.080;2023-05-10T01:01:36;7.57;;;2.88;;
53867;SDS011;41577;47.470;19.080;2023-05-10T01:01:49;9.88;;;3.15;;
53867;SDS011;41577;47.470;19.080;2023-05-10T01:02:01;9.63;;;3.15;;
53867;SDS011;41577;47.470;19.080;2023-05-10T01:02:13;7.50;;;3.00;;
53867;SDS011;41577;47.470;19.080;2023-05-10T01:02:25;3.90;;;2.95;;
53867;SDS011;41577;47.470;19.080;2023-05-10T01:02:37;4.53;;;3.08;;
53867;SDS011;41577;47.470;19.080;2023-05-10T01:02:49;7.13;;;3.00;;
53867;SDS011;41577;47.470;19.080;2023-05-10T01:03:01;7.20;;;3.00;;
53867;SDS011;41577;47.470;19.080;2023-05-10T01:03:14;4.57;;;2.92;;
53867;SDS011;41577;47.470;19.080;2023-05-10T01:03:26;3.33;;;2.92;;
53867;SDS011;41577;47.470;19.080;2023-05-10T01:03:37;3.45;;;2.92;;
53867;SDS011;41577;47.470;19.080;2023-05-10T01:03:51;3.74;;;3.32;;
53867;SDS011;41577;47.470;19.080;2023-05-10T01:04:03;4.43;;;3.35;;
53867;SDS011;41577;47.470;19.080;2023-05-10T01:04:15;5.60;;;3.38;;
53867;SDS011;41577;47.470;19.080;2023-05-10T01:04:27;6.65;;;3.10;;
53867;SDS011;41577;47.470;19.080;2023-05-10T01:04:38;4.78;;;2.70;;
53867;SDS011;41577;47.470;19.080;2023-05-10T01:04:50;4.95;;;3.03;;
53867;SDS011;41577;47.470;19.080;2023-05-10T01:05:02;5.05;;;3.03;;
53867;SDS011;41577;47.470;19.080;2023-05-10T01:05:15;5.75;;;2.88;;
53867;SDS011;41577;47.470;19.080;2023-05-10T01:05:27;5.47;;;2.92;;
53867;SDS011;41577;47.470;19.080;2023-05-10T01:05:38;5.25;;;2.95;;
53867;SDS011;41577;47.470;19.080;2023-05-10T01:05:50;4.55;;;2.85;;
53867;SDS011;41577;47.470;19.080;2023-05-10T01:06:02;7.00;;;2.92;;
53867;SDS011;41577;47.470;19.080;2023-05-10T01:06:14;6.75;;;3.10;;
53867;SDS011;41577;47.470;19.080;2023-05-10T01:06:26;10.88;;;3.10;;
53867;SDS011;41577;47.470;19.080;2023-05-10T01:06:37;10.80;;;3.20;;
53867;SDS011;41577;47.470;19.080;2023-05-10T01:06:49;11.90;;;3.10;;
53867;SDS011;41577;47.470;19.080;2023-05-10T01:07:01;5.15;;;2.78;;
53867;SDS011;41577;47.470;19.080;2023-05-10T01:07:13;3.30;;;2.35;;
53867;SDS011;41577;47.470;19.080;2023-05-10T01:07:25;2.92;;;2.60;;
53867;SDS011;41577;47.470;19.080;2023-05-10T01:07:38;3.17;;;2.70;;
53867;SDS011;41577;47.470;19.080;2023-05-10T01:07:50;4.32;;;2.58;;
53867;SDS011;41577;47.470;19.080;2023-05-10T01:08:02;5.45;;;2.53;;
53867;SDS011;41577;47.470;19.080;2023-05-10T01:08:14;5.00;;;2.72;;
53867;SDS011;41577;47.470;19.080;2023-05-10T01:08:26;6.00;;;2.90;;
53867;SDS011;41577;47.470;19.080;2023-05-10T01:08:39;6.03;;;2.90;;
53867;SDS011;41577;47.470;19.080;2023-05-10T01:08:51;6.22;;;2.90;;
53867;SDS011;41577;47.470;19.080;2023-05-10T01:09:03;6.10;;;3.22;;
53867;SDS011;41577;47.470;19.080;2023-05-10T01:09:15;4.88;;;3.10;;
53867;SDS011;41577;47.470;19.080;2023-05-10T01:09:28;5.38;;;3.13;;
53867;SDS011;41577;47.470;19.080;2023-05-10T01:09:39;6.75;;;2.95;;
53867;SDS011;41577;47.470;19.080;2023-05-10T01:09:51;5.32;;;2.78;;
53867;SDS011;41577;47.470;19.080;2023-05-10T01:10:03;5.88;;;2.55;;
53867;SDS011;41577;47.470;19.080;2023-05-10T01:10:15;6.30;;;2.90;;
53867;SDS011;41577;47.470;19.080;2023-05-10T01:10:27;7.47;;;2.92;;
53867;SDS011;41577;47.470;19.080;2023-05-10T01:10:40;7.75;;;2.92;;
53867;SDS011;41577;47.470;19.080;2023-05-10T01:10:52;5.45;;;2.72;;
53867;SDS011;41577;47.470;19.080;2023-05-10T01:11:04;3.75;;;2.63;;
53867;SDS011;41577;47.470;19.080;2023-05-10T01:11:16;2.85;;;2.63;;